createdAt,value
2022-12-17T00:00:20.018Z,49.81
2022-12-17T00:01:02.190Z,49.81
2022-12-17T00:01:53.593Z,49.81
2022-12-17T00:02:34.264Z,49.95
2022-12-17T00:03:16.277Z,50.04
2022-12-17T00:03:56.776Z,49.88
2022-12-17T00:04:37.239Z,49.86
2022-12-17T00:05:17.222Z,49.92
2022-12-17T00:05:57.555Z,50.02
2022-12-17T00:06:37.966Z,49.89
2022-12-17T00:07:18.081Z,49.74
2022-12-17T00:07:58.549Z,49.84
2022-12-17T00:08:38.879Z,49.77
2022-12-17T00:09:19.066Z,49.84
2022-12-17T00:09:58.930Z,49.64
2022-12-17T00:10:40.364Z,49.88
2022-12-17T00:11:20.335Z,49.76
2022-12-17T00:11:56.897Z,49.89
2022-12-17T00:12:38.378Z,49.81
2022-12-17T00:13:18.391Z,49.89
2022-12-17T00:13:58.451Z,49.87
2022-12-17T00:14:38.534Z,49.97
2022-12-17T00:15:18.881Z,50.01
2022-12-17T00:15:59.225Z,50.02
2022-12-17T00:16:39.426Z,49.78
2022-12-17T00:17:19.918Z,49.83
2022-12-17T00:17:59.860Z,49.65
2022-12-17T00:18:40.538Z,49.55
2022-12-17T00:19:20.476Z,49.60
2022-12-17T00:20:00.561Z,49.55
2022-12-17T00:20:40.511Z,49.59
2022-12-17T00:21:20.796Z,49.71
2022-12-17T00:22:01.018Z,49.91
2022-12-17T00:22:41.289Z,49.88
2022-12-17T00:23:23.744Z,49.61
2022-12-17T00:24:05.058Z,49.56
2022-12-17T00:24:45.498Z,49.80
2022-12-17T00:25:26.360Z,49.77
2022-12-17T00:26:11.455Z,49.67
2022-12-17T00:26:52.426Z,49.75
2022-12-17T00:27:33.769Z,49.48
2022-12-17T00:28:14.071Z,49.83
2022-12-17T00:28:54.133Z,49.74
2022-12-17T00:29:36.672Z,49.74
2022-12-17T00:30:16.575Z,49.56
2022-12-17T00:30:58.421Z,49.75
2022-12-17T00:31:38.716Z,49.66
2022-12-17T00:32:19.319Z,49.63
2022-12-17T00:32:59.840Z,49.68
2022-12-17T00:33:48.187Z,49.72
2022-12-17T00:34:28.275Z,49.44
2022-12-17T00:35:08.866Z,49.45
2022-12-17T00:35:49.198Z,49.45
2022-12-17T00:36:29.219Z,49.60
2022-12-17T00:37:10.036Z,49.69
2022-12-17T00:37:50.383Z,49.82
2022-12-17T00:38:34.955Z,49.64
2022-12-17T00:39:15.244Z,49.71
2022-12-17T00:39:59.246Z,49.70
2022-12-17T00:40:41.699Z,49.61
2022-12-17T00:41:24.602Z,49.57
2022-12-17T00:42:05.926Z,49.65
2022-12-17T00:42:46.303Z,49.63
2022-12-17T00:43:28.739Z,49.43
2022-12-17T00:44:08.622Z,49.63
2022-12-17T00:44:49.058Z,49.66
2022-12-17T00:45:29.115Z,49.99
2022-12-17T00:46:10.180Z,50.01
2022-12-17T00:46:51.507Z,49.76
2022-12-17T00:47:32.259Z,49.80
2022-12-17T00:48:20.585Z,49.83
2022-12-17T00:49:01.090Z,49.45
2022-12-17T00:49:41.747Z,49.45
2022-12-17T00:50:26.420Z,49.59
2022-12-17T00:51:14.762Z,49.57
2022-12-17T00:51:54.700Z,49.60
2022-12-17T00:52:34.912Z,49.71
2022-12-17T00:53:14.876Z,49.72
2022-12-17T00:53:54.967Z,49.58
2022-12-17T00:54:35.145Z,49.57
2022-12-17T00:55:15.140Z,49.87
2022-12-17T00:55:55.156Z,49.71
2022-12-17T00:56:38.111Z,49.79
2022-12-17T00:57:19.072Z,49.71
2022-12-17T00:57:59.209Z,49.69
2022-12-17T00:58:39.174Z,49.71
2022-12-17T00:59:19.240Z,49.67
2022-12-17T00:59:59.194Z,49.78
2022-12-17T01:00:39.338Z,49.64
2022-12-17T01:01:20.485Z,49.49
2022-12-17T01:02:00.880Z,49.69
2022-12-17T01:02:56.040Z,49.62
2022-12-17T01:03:36.963Z,49.57
2022-12-17T01:04:19.932Z,49.54
2022-12-17T01:04:59.958Z,49.41
2022-12-17T01:05:40.102Z,49.41
2022-12-17T01:06:23.267Z,49.45
2022-12-17T01:07:03.162Z,49.50
2022-12-17T01:07:43.712Z,49.13
2022-12-17T01:08:33.850Z,49.37
2022-12-17T01:09:14.558Z,49.29
2022-12-17T01:09:54.650Z,49.22
2022-12-17T01:10:36.132Z,49.11
2022-12-17T01:11:19.891Z,49.20
2022-12-17T01:12:01.732Z,49.35
2022-12-17T01:12:42.086Z,49.67
2022-12-17T01:13:22.448Z,49.48
2022-12-17T01:14:02.843Z,49.23
2022-12-17T01:14:43.533Z,49.75
2022-12-17T01:15:25.041Z,49.42
2022-12-17T01:16:05.940Z,49.39
2022-12-17T01:16:46.170Z,49.36
2022-12-17T01:17:26.550Z,49.40
2022-12-17T01:18:06.586Z,49.36
2022-12-17T01:18:47.098Z,49.42
2022-12-17T01:19:27.107Z,49.52
2022-12-17T01:20:07.188Z,49.38
2022-12-17T01:20:47.098Z,49.24
2022-12-17T01:21:28.702Z,49.17
2022-12-17T01:22:08.820Z,49.50
2022-12-17T01:22:49.647Z,49.32
2022-12-17T01:23:44.075Z,49.43
2022-12-17T01:24:21.099Z,49.38
2022-12-17T01:25:01.437Z,49.48
2022-12-17T01:25:41.979Z,49.54
2022-12-17T01:26:22.131Z,49.32
2022-12-17T01:27:04.431Z,49.38
2022-12-17T01:27:44.615Z,49.27
2022-12-17T01:28:24.578Z,49.18
2022-12-17T01:29:04.851Z,49.10
2022-12-17T01:29:44.929Z,49.16
2022-12-17T01:30:26.824Z,49.14
2022-12-17T01:31:06.935Z,49.19
2022-12-17T01:31:47.644Z,49.28
2022-12-17T01:32:30.006Z,49.13
2022-12-17T01:33:10.186Z,49.25
2022-12-17T01:33:50.077Z,49.12
2022-12-17T01:34:30.170Z,48.99
2022-12-17T01:35:10.042Z,48.98
2022-12-17T01:35:50.238Z,48.93
2022-12-17T01:36:30.802Z,49.10
2022-12-17T01:37:10.856Z,49.05
2022-12-17T01:37:53.967Z,49.14
2022-12-17T01:38:36.637Z,49.13
2022-12-17T01:39:17.187Z,48.84
2022-12-17T01:40:36.110Z,48.94
2022-12-17T01:41:16.402Z,48.90
2022-12-17T01:41:56.874Z,49.00
2022-12-17T01:42:38.472Z,48.97
2022-12-17T01:43:18.506Z,48.88
2022-12-17T01:43:58.380Z,49.21
2022-12-17T01:45:03.656Z,48.88
2022-12-17T01:45:45.606Z,48.92
2022-12-17T01:46:27.104Z,48.86
2022-12-17T01:47:21.658Z,48.93
2022-12-17T01:48:05.882Z,48.71
2022-12-17T01:48:49.682Z,48.96
2022-12-17T01:49:32.872Z,48.61
2022-12-17T01:50:12.918Z,48.96
2022-12-17T01:50:55.519Z,48.94
2022-12-17T01:51:37.545Z,48.66
2022-12-17T01:52:19.077Z,49.08
2022-12-17T01:52:59.364Z,49.02
2022-12-17T01:53:43.343Z,49.06
2022-12-17T01:54:24.629Z,49.06
2022-12-17T01:55:05.355Z,49.18
2022-12-17T01:55:45.889Z,49.29
2022-12-17T01:56:30.172Z,49.34
2022-12-17T01:57:19.287Z,49.23
2022-12-17T01:58:01.241Z,49.24
2022-12-17T01:58:40.876Z,49.36
2022-12-17T01:59:26.014Z,49.07
2022-12-17T02:00:14.909Z,48.88
2022-12-17T02:00:55.787Z,48.72
2022-12-17T02:01:36.575Z,48.66
2022-12-17T02:02:17.055Z,48.69
2022-12-17T02:02:57.657Z,48.73
2022-12-17T02:03:38.633Z,48.80
2022-12-17T02:04:18.982Z,48.65
2022-12-17T02:04:59.607Z,48.84
2022-12-17T02:05:46.725Z,48.77
2022-12-17T02:06:33.792Z,48.83
2022-12-17T02:07:26.849Z,48.80
2022-12-17T02:08:18.928Z,48.97
2022-12-17T02:09:07.131Z,48.89
2022-12-17T02:09:55.235Z,48.87
2022-12-17T02:10:43.737Z,49.04
2022-12-17T02:11:36.615Z,48.84
2022-12-17T02:12:24.015Z,48.95
2022-12-17T02:13:08.277Z,48.76
2022-12-17T02:13:54.258Z,48.72
2022-12-17T02:14:43.321Z,48.66
2022-12-17T02:15:30.764Z,48.59
2022-12-17T02:16:17.304Z,48.56
2022-12-17T02:17:24.593Z,48.58
2022-12-17T02:18:10.660Z,48.57
2022-12-17T02:18:58.216Z,48.47
2022-12-17T02:19:49.526Z,48.61
2022-12-17T02:20:41.004Z,48.57
2022-12-17T02:21:22.766Z,48.44
2022-12-17T02:22:08.388Z,48.47
2022-12-17T02:22:58.173Z,48.39
2022-12-17T02:23:54.349Z,48.44
2022-12-17T02:24:47.555Z,48.44
2022-12-17T02:25:35.960Z,48.54
2022-12-17T02:26:32.618Z,48.45
2022-12-17T02:27:18.454Z,48.25
2022-12-17T02:28:02.092Z,48.33
2022-12-17T02:28:43.776Z,48.33
2022-12-17T02:29:27.174Z,48.38
2022-12-17T02:30:09.627Z,48.29
2022-12-17T02:30:50.907Z,48.33
2022-12-17T02:31:32.220Z,48.25
2022-12-17T02:32:15.021Z,48.39
2022-12-17T02:32:57.901Z,48.58
2022-12-17T02:33:38.580Z,48.32
2022-12-17T02:34:30.831Z,48.43
2022-12-17T02:35:11.809Z,48.48
2022-12-17T02:35:55.496Z,48.55
2022-12-17T02:36:33.962Z,48.49
2022-12-17T02:37:14.470Z,48.33
2022-12-17T02:37:54.945Z,48.36
2022-12-17T02:38:36.875Z,48.46
2022-12-17T02:39:17.522Z,48.50
2022-12-17T02:39:58.273Z,48.26
2022-12-17T02:40:44.061Z,48.48
2022-12-17T02:41:29.496Z,48.41
2022-12-17T02:42:16.333Z,48.34
2022-12-17T02:42:56.844Z,48.27
2022-12-17T02:43:38.087Z,48.48
2022-12-17T02:44:19.563Z,48.22
2022-12-17T02:45:02.207Z,48.18
2022-12-17T02:45:43.139Z,48.10
2022-12-17T02:46:24.244Z,48.13
2022-12-17T02:47:07.452Z,48.13
2022-12-17T02:47:48.737Z,48.34
2022-12-17T02:48:31.187Z,48.25
2022-12-17T02:49:11.254Z,48.23
2022-12-17T02:49:51.696Z,48.37
2022-12-17T02:50:32.777Z,48.32
2022-12-17T02:51:13.374Z,48.45
2022-12-17T02:51:53.843Z,48.42
2022-12-17T02:52:38.128Z,48.49
2022-12-17T02:53:21.368Z,48.41
2022-12-17T02:54:02.139Z,48.31
2022-12-17T02:54:47.668Z,48.23
2022-12-17T02:55:28.184Z,48.05
2022-12-17T02:56:09.177Z,48.09
2022-12-17T02:56:51.221Z,48.17
2022-12-17T02:57:32.678Z,47.97
2022-12-17T02:58:13.133Z,48.08
2022-12-17T02:58:53.167Z,48.05
2022-12-17T02:59:33.654Z,48.12
2022-12-17T03:00:15.483Z,47.93
2022-12-17T03:00:56.027Z,47.68
2022-12-17T03:01:37.666Z,48.11
2022-12-17T03:02:18.226Z,48.46
2022-12-17T03:02:58.774Z,48.40
2022-12-17T03:03:39.506Z,48.11
2022-12-17T03:04:22.556Z,48.18
2022-12-17T03:05:15.245Z,48.33
2022-12-17T03:06:04.359Z,48.44
2022-12-17T03:06:44.275Z,48.44
2022-12-17T03:07:24.906Z,48.64
2022-12-17T03:08:05.213Z,48.70
2022-12-17T03:08:45.286Z,48.63
2022-12-17T03:09:25.434Z,48.77
2022-12-17T03:10:06.208Z,48.73
2022-12-17T03:10:47.541Z,48.84
2022-12-17T03:11:27.979Z,48.72
2022-12-17T03:12:08.334Z,48.66
2022-12-17T03:12:50.545Z,48.62
2022-12-17T03:13:40.844Z,48.49
2022-12-17T03:14:21.026Z,48.44
2022-12-17T03:15:01.451Z,48.18
2022-12-17T03:15:41.880Z,48.17
2022-12-17T03:16:30.289Z,48.26
2022-12-17T03:17:12.894Z,48.31
2022-12-17T03:17:52.986Z,48.37
2022-12-17T03:18:33.314Z,48.24
2022-12-17T03:19:13.649Z,48.22
2022-12-17T03:19:56.759Z,47.77
2022-12-17T03:20:37.113Z,47.98
2022-12-17T03:21:17.359Z,48.02
2022-12-17T03:21:57.755Z,48.13
2022-12-17T03:22:37.917Z,48.22
2022-12-17T03:23:22.155Z,48.00
2022-12-17T03:24:02.500Z,48.67
2022-12-17T03:24:43.976Z,48.53
2022-12-17T03:25:26.654Z,48.47
2022-12-17T03:26:09.156Z,48.53
2022-12-17T03:26:50.257Z,48.55
2022-12-17T03:27:31.072Z,48.47
2022-12-17T03:28:17.786Z,48.54
2022-12-17T03:29:12.805Z,48.50
2022-12-17T03:29:53.075Z,48.44
2022-12-17T03:30:36.418Z,48.36
2022-12-17T03:31:29.631Z,48.63
2022-12-17T03:32:12.256Z,48.34
2022-12-17T03:32:52.263Z,48.35
2022-12-17T03:33:36.635Z,48.40
2022-12-17T03:34:25.152Z,48.30
2022-12-17T03:35:05.854Z,48.15
2022-12-17T03:35:42.462Z,48.06
2022-12-17T03:36:23.828Z,48.11
2022-12-17T03:37:06.471Z,48.04
2022-12-17T03:37:48.134Z,47.97
2022-12-17T03:38:29.346Z,47.98
2022-12-17T03:39:10.623Z,47.97
2022-12-17T03:39:50.869Z,48.13
2022-12-17T03:40:31.242Z,48.15
2022-12-17T03:41:11.665Z,48.21
2022-12-17T03:41:52.259Z,48.30
2022-12-17T03:42:33.569Z,48.57
2022-12-17T03:43:16.643Z,48.32
2022-12-17T03:43:59.683Z,48.33
2022-12-17T03:44:40.097Z,48.19
2022-12-17T03:45:20.236Z,48.15
2022-12-17T03:46:15.170Z,48.33
2022-12-17T03:46:55.601Z,48.21
2022-12-17T03:47:35.806Z,48.20
2022-12-17T03:48:23.538Z,48.29
2022-12-17T03:49:03.538Z,48.28
2022-12-17T03:49:43.550Z,48.38
2022-12-17T03:50:24.919Z,48.35
2022-12-17T03:51:04.907Z,48.48
2022-12-17T03:51:45.108Z,48.55
2022-12-17T03:52:25.166Z,48.41
2022-12-17T03:53:05.528Z,48.38
2022-12-17T03:53:45.928Z,48.54
2022-12-17T03:54:25.946Z,48.38
2022-12-17T03:55:06.449Z,48.29
2022-12-17T03:55:46.684Z,48.23
2022-12-17T03:56:27.007Z,48.32
2022-12-17T03:57:09.568Z,48.52
2022-12-17T03:57:53.161Z,48.48
2022-12-17T03:58:34.649Z,48.62
2022-12-17T03:59:14.949Z,48.52
2022-12-17T03:59:55.223Z,48.50
2022-12-17T04:00:36.125Z,48.61
2022-12-17T04:01:18.749Z,48.28
2022-12-17T04:01:59.250Z,48.46
2022-12-17T04:02:40.051Z,48.48
2022-12-17T04:03:20.191Z,48.37
2022-12-17T04:04:00.300Z,48.22
2022-12-17T04:04:40.894Z,48.10
2022-12-17T04:05:21.300Z,48.06
2022-12-17T04:06:01.769Z,48.20
2022-12-17T04:06:41.998Z,48.15
2022-12-17T04:07:22.603Z,48.15
2022-12-17T04:08:02.930Z,48.18
2022-12-17T04:08:57.311Z,48.49
2022-12-17T04:09:38.050Z,48.34
2022-12-17T04:10:17.930Z,48.29
2022-12-17T04:11:00.136Z,48.45
2022-12-17T04:11:51.644Z,48.38
2022-12-17T04:12:31.715Z,48.42
2022-12-17T04:13:12.729Z,48.28
2022-12-17T04:13:54.150Z,48.33
2022-12-17T04:14:36.290Z,48.23
2022-12-17T04:15:17.457Z,48.10
2022-12-17T04:15:58.230Z,48.35
2022-12-17T04:16:38.298Z,48.04
2022-12-17T04:17:23.815Z,48.20
2022-12-17T04:18:03.994Z,48.09
2022-12-17T04:18:44.021Z,47.93
2022-12-17T04:19:24.055Z,48.17
2022-12-17T04:20:07.092Z,48.01
2022-12-17T04:20:47.373Z,47.83
2022-12-17T04:21:27.611Z,48.21
2022-12-17T04:22:08.122Z,48.37
2022-12-17T04:22:48.414Z,48.60
2022-12-17T04:23:37.311Z,48.39
2022-12-17T04:24:17.884Z,48.55
2022-12-17T04:24:57.942Z,48.49
2022-12-17T04:25:38.338Z,48.42
2022-12-17T04:26:18.595Z,48.67
2022-12-17T04:26:58.792Z,48.67
2022-12-17T04:27:39.326Z,48.50
2022-12-17T04:28:19.297Z,48.47
2022-12-17T04:29:00.972Z,48.41
2022-12-17T04:29:41.404Z,48.24
2022-12-17T04:30:21.421Z,48.42
2022-12-17T04:31:01.565Z,48.19
2022-12-17T04:31:41.480Z,48.26
2022-12-17T04:32:21.855Z,48.15
2022-12-17T04:33:02.675Z,48.03
2022-12-17T04:33:42.956Z,48.24
2022-12-17T04:34:23.266Z,48.32
2022-12-17T04:35:03.447Z,47.97
2022-12-17T04:35:43.926Z,47.96
2022-12-17T04:36:25.272Z,48.01
2022-12-17T04:37:05.558Z,47.96
2022-12-17T04:37:46.119Z,48.15
2022-12-17T04:38:26.354Z,48.15
2022-12-17T04:39:06.766Z,48.14
2022-12-17T04:39:47.023Z,48.08
2022-12-17T04:40:29.159Z,47.97
2022-12-17T04:41:17.839Z,47.71
2022-12-17T04:41:58.071Z,47.77
2022-12-17T04:42:38.052Z,47.68
2022-12-17T04:43:24.994Z,47.88
2022-12-17T04:44:06.628Z,47.51
2022-12-17T04:44:47.061Z,47.54
2022-12-17T04:45:27.031Z,47.71
2022-12-17T04:46:08.480Z,47.60
2022-12-17T04:46:51.940Z,47.30
2022-12-17T04:47:32.316Z,47.37
2022-12-17T04:48:19.637Z,47.52
2022-12-17T04:48:59.807Z,47.32
2022-12-17T04:49:40.160Z,47.38
2022-12-17T04:50:20.524Z,47.44
2022-12-17T04:51:00.797Z,47.34
2022-12-17T04:51:41.111Z,47.48
2022-12-17T04:52:21.504Z,47.42
2022-12-17T04:53:01.753Z,47.51
2022-12-17T04:53:42.192Z,47.39
2022-12-17T04:54:22.493Z,47.41
2022-12-17T04:55:02.705Z,47.51
2022-12-17T04:55:43.173Z,47.22
2022-12-17T04:56:23.414Z,47.49
2022-12-17T04:57:03.868Z,47.41
2022-12-17T04:57:49.560Z,47.49
2022-12-17T04:58:29.536Z,47.53
2022-12-17T04:59:10.948Z,47.42
2022-12-17T04:59:50.705Z,47.39
2022-12-17T05:00:31.941Z,47.49
2022-12-17T05:01:13.001Z,47.11
2022-12-17T05:01:53.529Z,47.37
2022-12-17T05:02:37.043Z,47.38
2022-12-17T05:03:23.874Z,47.27
2022-12-17T05:04:04.358Z,47.45
2022-12-17T05:04:44.418Z,47.55
2022-12-17T05:05:25.297Z,47.62
2022-12-17T05:06:05.601Z,47.58
2022-12-17T05:06:45.972Z,47.75
2022-12-17T05:07:26.400Z,47.62
2022-12-17T05:08:06.590Z,47.82
2022-12-17T05:08:47.018Z,47.83
2022-12-17T05:09:27.213Z,47.67
2022-12-17T05:10:15.849Z,47.67
2022-12-17T05:10:55.914Z,47.69
2022-12-17T05:11:36.092Z,47.71
2022-12-17T05:12:16.427Z,47.99
2022-12-17T05:12:56.732Z,47.73
2022-12-17T05:13:36.460Z,47.72
2022-12-17T05:14:18.010Z,47.76
2022-12-17T05:14:58.150Z,47.75
2022-12-17T05:15:38.617Z,47.80
2022-12-17T05:16:18.812Z,47.80
2022-12-17T05:16:58.738Z,47.85
2022-12-17T05:17:39.065Z,47.78
2022-12-17T05:18:24.068Z,47.71
2022-12-17T05:19:05.057Z,47.87
2022-12-17T05:19:48.835Z,47.75
2022-12-17T05:20:29.072Z,47.81
2022-12-17T05:21:09.836Z,47.56
2022-12-17T05:21:50.128Z,47.76
2022-12-17T05:22:33.224Z,47.64
2022-12-17T05:23:23.207Z,47.64
2022-12-17T05:24:04.480Z,47.59
2022-12-17T05:24:44.799Z,47.56
2022-12-17T05:25:26.047Z,47.77
2022-12-17T05:26:06.222Z,47.67
2022-12-17T05:26:47.696Z,47.55
2022-12-17T05:27:28.032Z,47.45
2022-12-17T05:28:08.358Z,47.37
2022-12-17T05:28:48.599Z,47.33
2022-12-17T05:29:30.300Z,47.36
2022-12-17T05:30:10.257Z,47.27
2022-12-17T05:30:50.611Z,47.32
2022-12-17T05:31:30.242Z,47.29
2022-12-17T05:32:10.648Z,47.32
2022-12-17T05:32:50.801Z,47.19
2022-12-17T05:33:30.998Z,47.22
2022-12-17T05:34:19.794Z,47.23
2022-12-17T05:34:59.747Z,47.25
2022-12-17T05:35:39.758Z,47.09
2022-12-17T05:36:20.082Z,46.86
2022-12-17T05:37:00.352Z,47.04
2022-12-17T05:37:40.785Z,46.86
2022-12-17T05:38:23.508Z,46.89
2022-12-17T05:39:04.046Z,46.71
2022-12-17T05:40:01.381Z,46.94
2022-12-17T05:40:41.979Z,47.00
2022-12-17T05:41:22.423Z,47.02
2022-12-17T05:42:02.490Z,47.19
2022-12-17T05:42:43.117Z,47.28
2022-12-17T05:43:25.795Z,48.03
2022-12-17T05:44:06.174Z,47.67
2022-12-17T05:44:48.136Z,47.83
2022-12-17T05:45:29.397Z,47.50
2022-12-17T05:46:10.965Z,47.54
2022-12-17T05:46:51.116Z,47.81
2022-12-17T05:47:32.272Z,47.81
2022-12-17T05:48:17.382Z,47.82
2022-12-17T05:48:57.800Z,47.78
2022-12-17T05:49:38.430Z,47.51
2022-12-17T05:50:18.714Z,47.71
2022-12-17T05:50:59.173Z,47.45
2022-12-17T05:51:39.938Z,47.16
2022-12-17T05:52:20.180Z,47.27
2022-12-17T05:53:00.500Z,47.40
2022-12-17T05:53:40.848Z,47.48
2022-12-17T05:54:21.157Z,47.72
2022-12-17T05:55:01.514Z,48.08
2022-12-17T05:55:42.169Z,47.75
2022-12-17T05:56:22.531Z,47.63
2022-12-17T05:57:02.826Z,47.86
2022-12-17T05:57:43.435Z,47.70
2022-12-17T05:58:24.755Z,47.39
2022-12-17T05:59:05.263Z,47.91
2022-12-17T05:59:45.755Z,47.99
2022-12-17T06:00:29.167Z,47.67
2022-12-17T06:01:13.928Z,47.98
2022-12-17T06:01:54.133Z,47.55
2022-12-17T06:02:34.198Z,47.83
2022-12-17T06:03:18.519Z,47.80
2022-12-17T06:03:58.830Z,47.61
2022-12-17T06:04:38.986Z,47.57
2022-12-17T06:05:19.307Z,47.78
2022-12-17T06:05:59.569Z,47.25
2022-12-17T06:06:40.005Z,47.49
2022-12-17T06:07:20.284Z,47.49
2022-12-17T06:08:00.506Z,47.54
2022-12-17T06:08:41.011Z,47.20
2022-12-17T06:09:21.150Z,47.04
2022-12-17T06:09:57.679Z,47.47
2022-12-17T06:10:37.694Z,46.90
2022-12-17T06:11:18.965Z,46.84
2022-12-17T06:12:02.599Z,46.87
2022-12-17T06:12:43.149Z,47.21
2022-12-17T06:13:28.713Z,47.07
2022-12-17T06:14:08.933Z,47.27
2022-12-17T06:14:48.906Z,47.08
2022-12-17T06:15:30.526Z,47.10
2022-12-17T06:16:10.945Z,47.02
2022-12-17T06:16:51.334Z,46.67
2022-12-17T06:17:31.379Z,46.73
2022-12-17T06:18:16.443Z,46.47
2022-12-17T06:18:57.086Z,46.65
2022-12-17T06:19:37.638Z,46.62
2022-12-17T06:20:32.449Z,46.48
2022-12-17T06:21:12.639Z,46.50
2022-12-17T06:21:52.988Z,46.77
2022-12-17T06:22:32.982Z,46.64
2022-12-17T06:23:19.928Z,46.57
2022-12-17T06:24:00.281Z,46.32
2022-12-17T06:24:44.246Z,46.73
2022-12-17T06:25:26.802Z,46.97
2022-12-17T06:26:07.063Z,46.64
2022-12-17T06:26:47.197Z,46.88
2022-12-17T06:27:27.659Z,47.01
2022-12-17T06:28:07.961Z,46.99
2022-12-17T06:28:48.342Z,46.95
2022-12-17T06:29:31.296Z,46.68
2022-12-17T06:30:15.589Z,46.86
2022-12-17T06:31:00.298Z,46.73
2022-12-17T06:31:40.631Z,46.88
2022-12-17T06:32:22.055Z,46.81
2022-12-17T06:33:14.043Z,46.46
2022-12-17T06:33:54.081Z,47.14
2022-12-17T06:34:34.037Z,46.59
2022-12-17T06:35:14.097Z,46.57
2022-12-17T06:35:54.659Z,46.87
2022-12-17T06:36:35.384Z,46.78
2022-12-17T06:37:24.335Z,46.55
2022-12-17T06:38:04.891Z,46.53
2022-12-17T06:38:45.196Z,46.57
2022-12-17T06:39:26.043Z,46.59
2022-12-17T06:40:06.057Z,46.20
2022-12-17T06:40:46.778Z,46.30
2022-12-17T06:41:27.182Z,46.66
2022-12-17T06:42:07.643Z,46.85
2022-12-17T06:42:48.146Z,47.01
2022-12-17T06:43:29.301Z,46.72
2022-12-17T06:44:09.720Z,46.80
2022-12-17T06:44:50.831Z,46.45
2022-12-17T06:45:32.592Z,46.60
2022-12-17T06:46:14.482Z,46.45
2022-12-17T06:46:54.915Z,46.47
2022-12-17T06:47:36.731Z,46.36
2022-12-17T06:48:20.255Z,46.41
2022-12-17T06:49:00.695Z,46.77
2022-12-17T06:49:40.973Z,46.76
2022-12-17T06:50:21.330Z,46.82
2022-12-17T06:51:01.537Z,46.61
2022-12-17T06:51:42.202Z,46.70
2022-12-17T06:52:22.266Z,46.49
2022-12-17T06:53:02.642Z,46.58
2022-12-17T06:53:43.087Z,46.46
2022-12-17T06:54:23.334Z,46.75
2022-12-17T06:55:03.506Z,46.82
2022-12-17T06:55:43.958Z,47.09
2022-12-17T06:56:24.898Z,47.13
2022-12-17T06:57:05.381Z,47.00
2022-12-17T06:57:50.208Z,46.91
2022-12-17T06:58:30.691Z,46.77
2022-12-17T06:59:11.084Z,46.69
2022-12-17T06:59:51.363Z,47.14
2022-12-17T07:00:34.751Z,46.57
2022-12-17T07:01:16.402Z,46.94
2022-12-17T07:01:56.687Z,46.57
2022-12-17T07:02:37.097Z,46.29
2022-12-17T07:03:17.417Z,46.57
2022-12-17T07:03:57.582Z,46.67
2022-12-17T07:04:37.915Z,46.30
2022-12-17T07:05:18.226Z,46.20
2022-12-17T07:05:58.502Z,46.18
2022-12-17T07:06:38.898Z,46.90
2022-12-17T07:07:19.300Z,46.20
2022-12-17T07:07:59.691Z,46.78
2022-12-17T07:08:39.728Z,46.77
2022-12-17T07:09:20.083Z,46.22
2022-12-17T07:10:00.451Z,46.17
2022-12-17T07:10:40.966Z,46.36
2022-12-17T07:11:20.985Z,45.97
2022-12-17T07:12:01.469Z,46.81
2022-12-17T07:12:41.639Z,46.42
2022-12-17T07:13:25.950Z,46.66
2022-12-17T07:14:06.399Z,46.62
2022-12-17T07:14:46.455Z,46.65
2022-12-17T07:15:27.281Z,46.67
2022-12-17T07:16:15.973Z,46.75
2022-12-17T07:17:02.654Z,46.56
2022-12-17T07:17:43.055Z,46.57
2022-12-17T07:18:23.586Z,46.60
2022-12-17T07:19:03.705Z,46.71
2022-12-17T07:19:43.862Z,46.35
2022-12-17T07:20:24.897Z,46.22
2022-12-17T07:21:06.437Z,46.93
2022-12-17T07:21:46.566Z,46.56
2022-12-17T07:22:27.054Z,46.52
2022-12-17T07:23:07.404Z,46.90
2022-12-17T07:23:47.678Z,46.66
2022-12-17T07:24:28.091Z,46.07
2022-12-17T07:25:08.458Z,46.35
2022-12-17T07:25:54.185Z,46.42
2022-12-17T07:26:35.460Z,46.32
2022-12-17T07:27:16.162Z,46.81
2022-12-17T07:28:01.456Z,46.70
2022-12-17T07:28:41.510Z,46.63
2022-12-17T07:29:22.250Z,46.33
2022-12-17T07:30:02.286Z,46.65
2022-12-17T07:30:42.351Z,46.85
2022-12-17T07:31:22.759Z,46.86
2022-12-17T07:32:04.555Z,46.64
2022-12-17T07:32:44.826Z,46.49
2022-12-17T07:33:27.765Z,46.27
2022-12-17T07:34:08.241Z,46.71
2022-12-17T07:34:48.681Z,46.62
2022-12-17T07:35:28.938Z,46.37
2022-12-17T07:36:11.326Z,46.14
2022-12-17T07:36:51.315Z,46.21
2022-12-17T07:37:32.970Z,46.17
2022-12-17T07:38:20.777Z,46.08
2022-12-17T07:39:01.219Z,45.91
2022-12-17T07:39:41.599Z,46.18
2022-12-17T07:40:22.405Z,45.94
2022-12-17T07:41:03.219Z,45.82
2022-12-17T07:41:43.664Z,45.81
2022-12-17T07:42:23.820Z,46.59
2022-12-17T07:43:04.130Z,45.94
2022-12-17T07:43:48.256Z,46.60
2022-12-17T07:44:45.327Z,46.31
2022-12-17T07:45:27.026Z,46.52
2022-12-17T07:46:09.853Z,46.40
2022-12-17T07:46:50.935Z,47.05
2022-12-17T07:47:35.517Z,46.66
2022-12-17T07:48:15.427Z,46.26
2022-12-17T07:48:54.332Z,46.35
2022-12-17T07:49:37.558Z,46.12
2022-12-17T07:50:22.575Z,45.88
2022-12-17T07:51:10.143Z,45.78
2022-12-17T07:51:50.333Z,45.78
2022-12-17T07:52:30.863Z,46.22
2022-12-17T07:53:27.430Z,46.19
2022-12-17T07:54:07.644Z,46.20
2022-12-17T07:54:56.861Z,46.44
2022-12-17T07:55:36.904Z,46.22
2022-12-17T07:56:17.050Z,46.24
2022-12-17T07:56:57.536Z,46.08
2022-12-17T07:57:37.869Z,46.42
2022-12-17T07:58:18.851Z,46.39
2022-12-17T07:58:59.207Z,46.29
2022-12-17T07:59:39.721Z,46.08
2022-12-17T08:00:20.201Z,45.90
2022-12-17T08:01:00.495Z,45.69
2022-12-17T08:01:41.068Z,46.03
2022-12-17T08:02:21.703Z,45.93
2022-12-17T08:03:03.399Z,46.33
2022-12-17T08:03:43.794Z,46.35
2022-12-17T08:04:23.889Z,46.29
2022-12-17T08:05:04.344Z,46.25
2022-12-17T08:05:44.550Z,45.97
2022-12-17T08:06:24.840Z,45.71
2022-12-17T08:07:10.120Z,46.00
2022-12-17T08:07:52.277Z,45.80
2022-12-17T08:08:33.120Z,46.14
2022-12-17T08:09:13.539Z,46.04
2022-12-17T08:09:53.844Z,46.01
2022-12-17T08:10:34.082Z,46.13
2022-12-17T08:11:14.419Z,46.29
2022-12-17T08:11:54.808Z,46.12
2022-12-17T08:12:31.338Z,46.48
2022-12-17T08:13:14.669Z,46.25
2022-12-17T08:14:03.179Z,46.08
2022-12-17T08:14:43.370Z,45.99
2022-12-17T08:15:24.371Z,45.86
2022-12-17T08:16:05.220Z,46.11
2022-12-17T08:16:45.754Z,46.29
2022-12-17T08:17:25.723Z,46.09
2022-12-17T08:18:07.284Z,45.98
2022-12-17T08:18:47.414Z,45.82
2022-12-17T08:19:27.868Z,46.35
2022-12-17T08:20:08.253Z,46.28
2022-12-17T08:20:48.573Z,45.87
2022-12-17T08:21:28.858Z,46.42
2022-12-17T08:22:09.224Z,46.07
2022-12-17T08:22:57.944Z,46.47
2022-12-17T08:23:38.380Z,46.09
2022-12-17T08:24:18.613Z,46.19
2022-12-17T08:24:58.922Z,46.16
2022-12-17T08:25:39.273Z,46.30
2022-12-17T08:26:19.507Z,45.92
2022-12-17T08:26:59.802Z,45.90
2022-12-17T08:27:41.756Z,46.17
2022-12-17T08:28:51.652Z,46.00
2022-12-17T08:29:29.636Z,46.31
2022-12-17T08:30:10.638Z,46.31
2022-12-17T08:30:53.713Z,46.54
2022-12-17T08:31:37.479Z,46.45
2022-12-17T08:32:18.415Z,46.80
2022-12-17T08:33:00.433Z,47.00
2022-12-17T08:33:42.125Z,47.23
2022-12-17T08:34:23.500Z,47.01
2022-12-17T08:35:09.303Z,47.07
2022-12-17T08:35:52.442Z,46.94
2022-12-17T08:36:32.511Z,47.17
2022-12-17T08:37:12.642Z,46.93
2022-12-17T08:37:53.091Z,46.74
2022-12-17T08:38:33.377Z,46.86
2022-12-17T08:39:13.716Z,46.97
2022-12-17T08:39:54.025Z,47.24
2022-12-17T08:40:34.269Z,47.16
2022-12-17T08:41:14.742Z,47.07
2022-12-17T08:41:58.354Z,46.86
2022-12-17T08:42:41.400Z,46.77
2022-12-17T08:43:21.926Z,46.97
2022-12-17T08:44:02.215Z,46.85
2022-12-17T08:44:41.776Z,46.75
2022-12-17T08:45:22.204Z,46.80
2022-12-17T08:46:05.281Z,46.85
2022-12-17T08:46:45.726Z,46.89
2022-12-17T08:47:22.263Z,47.14
2022-12-17T08:48:04.230Z,46.86
2022-12-17T08:48:45.904Z,46.85
2022-12-17T08:49:26.351Z,46.73
2022-12-17T08:50:09.657Z,46.69
2022-12-17T08:50:50.096Z,46.96
2022-12-17T08:51:30.591Z,46.61
2022-12-17T08:52:11.064Z,47.03
2022-12-17T08:52:51.364Z,46.78
2022-12-17T08:53:34.870Z,46.61
2022-12-17T08:54:15.432Z,46.52
2022-12-17T08:54:55.799Z,46.71
2022-12-17T08:55:35.987Z,47.21
2022-12-17T08:56:16.210Z,46.56
2022-12-17T08:56:56.523Z,46.50
2022-12-17T08:57:37.268Z,46.59
2022-12-17T08:58:18.061Z,46.93
2022-12-17T08:58:59.359Z,46.34
2022-12-17T08:59:39.586Z,46.81